sensor_id;sensor_type;location;lat;lon;timestamp;P1;durP1;ratioP1;P2;durP2;ratioP2
30249;SDS011;17064;47.974;13.826;2023-05-08T00:03:19;9.30;;;6.70;;
30249;SDS011;17064;47.974;13.826;2023-05-08T00:08:19;12.35;;;7.22;;
30249;SDS011;17064;47.974;13.826;2023-05-08T00:13:20;10.07;;;6.22;;
30249;SDS011;17064;47.974;13.826;2023-05-08T00:18:21;10.98;;;7.30;;
30249;SDS011;17064;47.974;13.826;2023-05-08T00:23:21;13.30;;;7.60;;
30249;SDS011;17064;47.974;13.826;2023-05-08T00:28:22;14.55;;;7.47;;
30249;SDS011;17064;47.974;13.826;2023-05-08T00:33:23;13.30;;;7.80;;
30249;SDS011;17064;47.974;13.826;2023-05-08T00:38:24;16.13;;;8.80;;
30249;SDS011;17064;47.974;13.826;2023-05-08T00:43:25;15.88;;;8.75;;
30249;SDS011;17064;47.974;13.826;2023-05-08T00:48:27;13.25;;;8.23;;
30249;SDS011;17064;47.974;13.826;2023-05-08T00:53:32;14.10;;;8.40;;
30249;SDS011;17064;47.974;13.826;2023-05-08T00:58:36;15.10;;;9.13;;
30249;SDS011;17064;47.974;13.826;2023-05-08T01:03:38;20.73;;;10.70;;
30249;SDS011;17064;47.974;13.826;2023-05-08T01:08:45;20.15;;;10.48;;
30249;SDS011;17064;47.974;13.826;2023-05-08T01:35:48;22.13;;;11.70;;
30249;SDS011;17064;47.974;13.826;2023-05-08T01:41:06;24.50;;;12.48;;
30249;SDS011;17064;47.974;13.826;2023-05-08T01:46:12;22.10;;;11.73;;
30249;SDS011;17064;47.974;13.826;2023-05-08T01:51:19;25.73;;;12.88;;
30249;SDS011;17064;47.974;13.826;2023-05-08T01:56:23;26.08;;;12.88;;
30249;SDS011;17064;47.974;13.826;2023-05-08T02:01:27;25.45;;;13.98;;
30249;SDS011;17064;47.974;13.826;2023-05-08T02:06:31;25.08;;;13.20;;
30249;SDS011;17064;47.974;13.826;2023-05-08T02:11:34;28.13;;;14.07;;
30249;SDS011;17064;47.974;13.826;2023-05-08T02:16:36;22.40;;;12.50;;
30249;SDS011;17064;47.974;13.826;2023-05-08T02:21:39;24.00;;;13.30;;
30249;SDS011;17064;47.974;13.826;2023-05-08T02:26:41;27.30;;;13.70;;
30249;SDS011;17064;47.974;13.826;2023-05-08T02:31:44;29.67;;;14.00;;
30249;SDS011;17064;47.974;13.826;2023-05-08T02:36:45;30.48;;;15.10;;
30249;SDS011;17064;47.974;13.826;2023-05-08T02:41:48;27.42;;;14.15;;
30249;SDS011;17064;47.974;13.826;2023-05-08T02:46:54;28.60;;;15.18;;
30249;SDS011;17064;47.974;13.826;2023-05-08T02:52:29;28.27;;;14.93;;
30249;SDS011;17064;47.974;13.826;2023-05-08T03:03:04;28.52;;;15.02;;
30249;SDS011;17064;47.974;13.826;2023-05-08T03:08:10;27.80;;;14.55;;
30249;SDS011;17064;47.974;13.826;2023-05-08T03:13:15;24.38;;;14.13;;
30249;SDS011;17064;47.974;13.826;2023-05-08T03:18:18;27.02;;;14.43;;
30249;SDS011;17064;47.974;13.826;2023-05-08T03:23:21;26.25;;;14.32;;
30249;SDS011;17064;47.974;13.826;2023-05-08T03:28:23;26.37;;;14.23;;
30249;SDS011;17064;47.974;13.826;2023-05-08T03:33:25;28.70;;;14.45;;
30249;SDS011;17064;47.974;13.826;2023-05-08T03:38:27;27.10;;;14.20;;
30249;SDS011;17064;47.974;13.826;2023-05-08T03:43:28;25.48;;;13.95;;
30249;SDS011;17064;47.974;13.826;2023-05-08T03:48:31;25.80;;;14.80;;
30249;SDS011;17064;47.974;13.826;2023-05-08T03:53:35;27.67;;;15.50;;
30249;SDS011;17064;47.974;13.826;2023-05-08T03:58:59;27.83;;;14.52;;
30249;SDS011;17064;47.974;13.826;2023-05-08T04:09:26;24.25;;;14.10;;
30249;SDS011;17064;47.974;13.826;2023-05-08T04:14:43;28.55;;;14.65;;
30249;SDS011;17064;47.974;13.826;2023-05-08T04:19:51;27.90;;;15.48;;
30249;SDS011;17064;47.974;13.826;2023-05-08T04:25:04;29.33;;;14.35;;
30249;SDS011;17064;47.974;13.826;2023-05-08T04:30:07;27.98;;;15.32;;
30249;SDS011;17064;47.974;13.826;2023-05-08T04:35:09;24.40;;;14.38;;
30249;SDS011;17064;47.974;13.826;2023-05-08T04:40:12;28.40;;;15.38;;
30249;SDS011;17064;47.974;13.826;2023-05-08T04:45:13;28.38;;;15.57;;
30249;SDS011;17064;47.974;13.826;2023-05-08T04:50:13;30.75;;;15.10;;
30249;SDS011;17064;47.974;13.826;2023-05-08T04:55:14;29.15;;;14.93;;
30249;SDS011;17064;47.974;13.826;2023-05-08T05:00:15;27.95;;;15.50;;
30249;SDS011;17064;47.974;13.826;2023-05-08T05:05:16;28.42;;;15.57;;
30249;SDS011;17064;47.974;13.826;2023-05-08T05:10:17;31.15;;;16.02;;
30249;SDS011;17064;47.974;13.826;2023-05-08T05:15:18;31.65;;;15.38;;
30249;SDS011;17064;47.974;13.826;2023-05-08T05:20:19;29.92;;;14.48;;
30249;SDS011;17064;47.974;13.826;2023-05-08T05:25:19;25.48;;;14.75;;
30249;SDS011;17064;47.974;13.826;2023-05-08T05:30:20;31.73;;;16.02;;
30249;SDS011;17064;47.974;13.826;2023-05-08T05:35:21;28.38;;;15.50;;
30249;SDS011;17064;47.974;13.826;2023-05-08T05:40:22;28.63;;;15.55;;
30249;SDS011;17064;47.974;13.826;2023-05-08T05:45:23;29.13;;;15.02;;
30249;SDS011;17064;47.974;13.826;2023-05-08T05:50:23;30.70;;;15.93;;
30249;SDS011;17064;47.974;13.826;2023-05-08T05:55:25;29.63;;;16.13;;
30249;SDS011;17064;47.974;13.826;2023-05-08T06:00:26;33.63;;;17.63;;
30249;SDS011;17064;47.974;13.826;2023-05-08T06:05:27;33.60;;;16.23;;
30249;SDS011;17064;47.974;13.826;2023-05-08T06:10:27;35.05;;;16.88;;
30249;SDS011;17064;47.974;13.826;2023-05-08T06:15:30;30.63;;;15.95;;
30249;SDS011;17064;47.974;13.826;2023-05-08T06:20:30;32.08;;;17.08;;
30249;SDS011;17064;47.974;13.826;2023-05-08T06:25:31;32.55;;;16.65;;
30249;SDS011;17064;47.974;13.826;2023-05-08T06:35:35;35.53;;;17.13;;
30249;SDS011;17064;47.974;13.826;2023-05-08T06:40:39;34.80;;;16.30;;
30249;SDS011;17064;47.974;13.826;2023-05-08T06:45:44;33.35;;;16.95;;
30249;SDS011;17064;47.974;13.826;2023-05-08T06:50:44;34.97;;;17.48;;
30249;SDS011;17064;47.974;13.826;2023-05-08T06:55:47;33.53;;;17.50;;
30249;SDS011;17064;47.974;13.826;2023-05-08T07:00:47;30.20;;;15.60;;
30249;SDS011;17064;47.974;13.826;2023-05-08T07:05:48;35.05;;;16.40;;
30249;SDS011;17064;47.974;13.826;2023-05-08T07:10:49;33.53;;;16.85;;
30249;SDS011;17064;47.974;13.826;2023-05-08T07:15:49;33.67;;;17.00;;
30249;SDS011;17064;47.974;13.826;2023-05-08T07:20:50;31.75;;;15.55;;
30249;SDS011;17064;47.974;13.826;2023-05-08T07:25:51;37.28;;;17.23;;
30249;SDS011;17064;47.974;13.826;2023-05-08T07:30:53;30.70;;;16.38;;
30249;SDS011;17064;47.974;13.826;2023-05-08T07:35:54;34.05;;;17.00;;
30249;SDS011;17064;47.974;13.826;2023-05-08T07:40:54;33.50;;;16.65;;
30249;SDS011;17064;47.974;13.826;2023-05-08T07:46:00;31.13;;;16.33;;
30249;SDS011;17064;47.974;13.826;2023-05-08T07:51:01;29.00;;;15.38;;
30249;SDS011;17064;47.974;13.826;2023-05-08T07:56:02;25.98;;;14.07;;
30249;SDS011;17064;47.974;13.826;2023-05-08T08:01:03;28.88;;;15.40;;
30249;SDS011;17064;47.974;13.826;2023-05-08T08:06:03;28.45;;;14.88;;
30249;SDS011;17064;47.974;13.826;2023-05-08T08:11:05;31.60;;;15.70;;
30249;SDS011;17064;47.974;13.826;2023-05-08T08:16:06;28.30;;;14.30;;
30249;SDS011;17064;47.974;13.826;2023-05-08T08:21:07;27.42;;;13.77;;
30249;SDS011;17064;47.974;13.826;2023-05-08T08:26:07;29.50;;;14.52;;
30249;SDS011;17064;47.974;13.826;2023-05-08T08:31:08;29.08;;;14.73;;
30249;SDS011;17064;47.974;13.826;2023-05-08T08:36:13;24.98;;;14.15;;
30249;SDS011;17064;47.974;13.826;2023-05-08T08:41:14;26.95;;;14.80;;
30249;SDS011;17064;47.974;13.826;2023-05-08T08:46:15;22.90;;;13.93;;
30249;SDS011;17064;47.974;13.826;2023-05-08T08:51:42;27.90;;;13.98;;
30249;SDS011;17064;47.974;13.826;2023-05-08T08:56:47;25.80;;;14.23;;
30249;SDS011;17064;47.974;13.826;2023-05-08T09:01:50;26.40;;;13.27;;
30249;SDS011;17064;47.974;13.826;2023-05-08T09:06:55;25.33;;;13.70;;
30249;SDS011;17064;47.974;13.826;2023-05-08T09:11:57;24.17;;;13.07;;
30249;SDS011;17064;47.974;13.826;2023-05-08T09:16:58;29.35;;;14.32;;
30249;SDS011;17064;47.974;13.826;2023-05-08T09:21:59;25.60;;;13.77;;
30249;SDS011;17064;47.974;13.826;2023-05-08T09:27:00;25.40;;;14.50;;
30249;SDS011;17064;47.974;13.826;2023-05-08T09:32:01;27.83;;;14.18;;
30249;SDS011;17064;47.974;13.826;2023-05-08T09:42:10;22.95;;;13.20;;
30249;SDS011;17064;47.974;13.826;2023-05-08T09:47:11;21.63;;;11.88;;
30249;SDS011;17064;47.974;13.826;2023-05-08T09:52:14;26.23;;;13.18;;
30249;SDS011;17064;47.974;13.826;2023-05-08T09:57:15;24.08;;;12.35;;
30249;SDS011;17064;47.974;13.826;2023-05-08T10:02:16;27.10;;;13.68;;
30249;SDS011;17064;47.974;13.826;2023-05-08T10:07:32;23.50;;;12.38;;
30249;SDS011;17064;47.974;13.826;2023-05-08T10:12:33;20.92;;;11.85;;
30249;SDS011;17064;47.974;13.826;2023-05-08T10:17:37;20.52;;;11.82;;
30249;SDS011;17064;47.974;13.826;2023-05-08T10:22:47;23.60;;;12.80;;
30249;SDS011;17064;47.974;13.826;2023-05-08T10:33:01;23.70;;;13.18;;
30249;SDS011;17064;47.974;13.826;2023-05-08T10:38:08;20.20;;;11.85;;
30249;SDS011;17064;47.974;13.826;2023-05-08T10:43:09;26.38;;;12.68;;
30249;SDS011;17064;47.974;13.826;2023-05-08T10:53:43;19.27;;;11.63;;
30249;SDS011;17064;47.974;13.826;2023-05-08T10:58:50;21.98;;;12.30;;
30249;SDS011;17064;47.974;13.826;2023-05-08T11:03:58;22.70;;;12.75;;
30249;SDS011;17064;47.974;13.826;2023-05-08T11:08:58;21.50;;;12.90;;
30249;SDS011;17064;47.974;13.826;2023-05-08T11:19:16;19.30;;;11.90;;
30249;SDS011;17064;47.974;13.826;2023-05-08T11:24:18;19.90;;;12.23;;
30249;SDS011;17064;47.974;13.826;2023-05-08T11:29:34;19.05;;;10.88;;
30249;SDS011;17064;47.974;13.826;2023-05-08T11:39:43;21.08;;;11.45;;
30249;SDS011;17064;47.974;13.826;2023-05-08T11:44:44;21.38;;;11.88;;
30249;SDS011;17064;47.974;13.826;2023-05-08T11:49:45;20.83;;;11.27;;
30249;SDS011;17064;47.974;13.826;2023-05-08T11:54:47;18.73;;;9.82;;
30249;SDS011;17064;47.974;13.826;2023-05-08T11:59:49;18.02;;;10.85;;
30249;SDS011;17064;47.974;13.826;2023-05-08T12:04:50;16.45;;;10.60;;
30249;SDS011;17064;47.974;13.826;2023-05-08T12:09:51;20.33;;;11.73;;
30249;SDS011;17064;47.974;13.826;2023-05-08T12:14:52;18.25;;;11.32;;
30249;SDS011;17064;47.974;13.826;2023-05-08T12:19:53;16.52;;;10.55;;
30249;SDS011;17064;47.974;13.826;2023-05-08T12:24:55;16.23;;;10.45;;
30249;SDS011;17064;47.974;13.826;2023-05-08T12:29:56;14.95;;;9.68;;
30249;SDS011;17064;47.974;13.826;2023-05-08T12:34:57;17.92;;;9.52;;
30249;SDS011;17064;47.974;13.826;2023-05-08T12:39:59;18.15;;;10.45;;
30249;SDS011;17064;47.974;13.826;2023-05-08T12:45:00;15.07;;;9.40;;
30249;SDS011;17064;47.974;13.826;2023-05-08T12:50:01;14.18;;;9.27;;
30249;SDS011;17064;47.974;13.826;2023-05-08T12:55:01;13.23;;;9.20;;
30249;SDS011;17064;47.974;13.826;2023-05-08T13:00:03;13.88;;;9.55;;
30249;SDS011;17064;47.974;13.826;2023-05-08T13:05:04;13.07;;;8.98;;
30249;SDS011;17064;47.974;13.826;2023-05-08T13:10:05;11.85;;;8.88;;
30249;SDS011;17064;47.974;13.826;2023-05-08T13:15:07;14.98;;;8.55;;
30249;SDS011;17064;47.974;13.826;2023-05-08T13:20:08;15.88;;;8.30;;
30249;SDS011;17064;47.974;13.826;2023-05-08T13:25:10;12.00;;;8.77;;
30249;SDS011;17064;47.974;13.826;2023-05-08T13:30:11;12.13;;;8.18;;
30249;SDS011;17064;47.974;13.826;2023-05-08T13:40:15;11.18;;;8.05;;
30249;SDS011;17064;47.974;13.826;2023-05-08T13:45:16;10.45;;;7.13;;
30249;SDS011;17064;47.974;13.826;2023-05-08T13:50:20;15.95;;;7.35;;
30249;SDS011;17064;47.974;13.826;2023-05-08T13:55:21;10.20;;;7.40;;
30249;SDS011;17064;47.974;13.826;2023-05-08T14:00:22;10.43;;;7.53;;
30249;SDS011;17064;47.974;13.826;2023-05-08T14:05:22;8.45;;;5.85;;
30249;SDS011;17064;47.974;13.826;2023-05-08T14:10:23;7.80;;;5.28;;
30249;SDS011;17064;47.974;13.826;2023-05-08T14:15:24;7.97;;;5.60;;
30249;SDS011;17064;47.974;13.826;2023-05-08T14:20:26;10.05;;;6.75;;
30249;SDS011;17064;47.974;13.826;2023-05-08T14:25:27;7.93;;;5.80;;
30249;SDS011;17064;47.974;13.826;2023-05-08T14:30:28;8.10;;;5.23;;
30249;SDS011;17064;47.974;13.826;2023-05-08T14:35:29;9.23;;;6.55;;
30249;SDS011;17064;47.974;13.826;2023-05-08T14:40:30;9.13;;;6.22;;
30249;SDS011;17064;47.974;13.826;2023-05-08T14:45:30;10.10;;;7.30;;
30249;SDS011;17064;47.974;13.826;2023-05-08T14:50:31;9.45;;;6.97;;
30249;SDS011;17064;47.974;13.826;2023-05-08T14:55:32;11.85;;;8.02;;
30249;SDS011;17064;47.974;13.826;2023-05-08T15:00:32;8.68;;;6.50;;
30249;SDS011;17064;47.974;13.826;2023-05-08T15:05:33;12.32;;;7.38;;
30249;SDS011;17064;47.974;13.826;2023-05-08T15:10:34;10.27;;;6.55;;
30249;SDS011;17064;47.974;13.826;2023-05-08T15:15:35;8.50;;;6.55;;
30249;SDS011;17064;47.974;13.826;2023-05-08T15:20:36;8.25;;;6.30;;
30249;SDS011;17064;47.974;13.826;2023-05-08T15:25:37;9.25;;;6.13;;
30249;SDS011;17064;47.974;13.826;2023-05-08T15:30:37;8.18;;;5.65;;
30249;SDS011;17064;47.974;13.826;2023-05-08T15:35:38;8.43;;;5.85;;
30249;SDS011;17064;47.974;13.826;2023-05-08T15:40:39;10.05;;;6.22;;
30249;SDS011;17064;47.974;13.826;2023-05-08T15:45:39;8.30;;;5.90;;
30249;SDS011;17064;47.974;13.826;2023-05-08T15:50:40;6.70;;;5.40;;
30249;SDS011;17064;47.974;13.826;2023-05-08T15:55:40;7.43;;;4.72;;
30249;SDS011;17064;47.974;13.826;2023-05-08T16:00:41;11.57;;;4.97;;
30249;SDS011;17064;47.974;13.826;2023-05-08T16:05:42;8.85;;;5.78;;
30249;SDS011;17064;47.974;13.826;2023-05-08T16:10:43;6.25;;;4.80;;
30249;SDS011;17064;47.974;13.826;2023-05-08T16:15:43;5.35;;;4.20;;
30249;SDS011;17064;47.974;13.826;2023-05-08T16:20:44;7.82;;;4.95;;
30249;SDS011;17064;47.974;13.826;2023-05-08T16:25:45;9.18;;;4.97;;
30249;SDS011;17064;47.974;13.826;2023-05-08T16:30:45;7.03;;;4.95;;
30249;SDS011;17064;47.974;13.826;2023-05-08T16:35:46;6.72;;;4.50;;
30249;SDS011;17064;47.974;13.826;2023-05-08T16:40:47;5.68;;;3.90;;
30249;SDS011;17064;47.974;13.826;2023-05-08T16:45:49;5.13;;;3.80;;
30249;SDS011;17064;47.974;13.826;2023-05-08T16:50:50;6.45;;;3.92;;
30249;SDS011;17064;47.974;13.826;2023-05-08T16:55:51;9.70;;;4.38;;
30249;SDS011;17064;47.974;13.826;2023-05-08T17:00:52;9.27;;;4.00;;
30249;SDS011;17064;47.974;13.826;2023-05-08T17:05:53;4.82;;;3.25;;
30249;SDS011;17064;47.974;13.826;2023-05-08T17:10:53;7.35;;;4.03;;
30249;SDS011;17064;47.974;13.826;2023-05-08T17:15:54;4.40;;;3.35;;
30249;SDS011;17064;47.974;13.826;2023-05-08T17:20:55;6.07;;;3.47;;
30249;SDS011;17064;47.974;13.826;2023-05-08T17:25:59;4.50;;;3.67;;
30249;SDS011;17064;47.974;13.826;2023-05-08T17:31:00;4.88;;;3.72;;
30249;SDS011;17064;47.974;13.826;2023-05-08T17:36:00;7.15;;;3.95;;
30249;SDS011;17064;47.974;13.826;2023-05-08T17:41:01;7.53;;;4.88;;
30249;SDS011;17064;47.974;13.826;2023-05-08T17:46:02;5.63;;;4.15;;
30249;SDS011;17064;47.974;13.826;2023-05-08T17:51:03;8.68;;;4.97;;
30249;SDS011;17064;47.974;13.826;2023-05-08T17:56:04;7.28;;;5.32;;
30249;SDS011;17064;47.974;13.826;2023-05-08T18:01:05;7.93;;;5.68;;
30249;SDS011;17064;47.974;13.826;2023-05-08T18:06:06;8.13;;;5.43;;
30249;SDS011;17064;47.974;13.826;2023-05-08T18:11:40;7.82;;;5.18;;
30249;SDS011;17064;47.974;13.826;2023-05-08T18:16:34;9.80;;;4.72;;
30249;SDS011;17064;47.974;13.826;2023-05-08T18:21:34;7.03;;;4.78;;
30249;SDS011;17064;47.974;13.826;2023-05-08T18:26:35;7.22;;;5.25;;
30249;SDS011;17064;47.974;13.826;2023-05-08T18:31:37;6.85;;;4.72;;
30249;SDS011;17064;47.974;13.826;2023-05-08T18:36:37;7.90;;;4.63;;
30249;SDS011;17064;47.974;13.826;2023-05-08T18:41:38;7.07;;;5.13;;
30249;SDS011;17064;47.974;13.826;2023-05-08T18:46:39;6.28;;;4.65;;
30249;SDS011;17064;47.974;13.826;2023-05-08T18:51:39;8.75;;;5.72;;
30249;SDS011;17064;47.974;13.826;2023-05-08T18:56:40;10.63;;;5.65;;
30249;SDS011;17064;47.974;13.826;2023-05-08T19:01:41;9.18;;;5.40;;
30249;SDS011;17064;47.974;13.826;2023-05-08T19:06:42;8.48;;;6.18;;
30249;SDS011;17064;47.974;13.826;2023-05-08T19:11:43;8.52;;;5.97;;
30249;SDS011;17064;47.974;13.826;2023-05-08T19:16:43;9.48;;;6.05;;
30249;SDS011;17064;47.974;13.826;2023-05-08T19:21:44;7.82;;;5.22;;
30249;SDS011;17064;47.974;13.826;2023-05-08T19:26:45;9.13;;;5.10;;
30249;SDS011;17064;47.974;13.826;2023-05-08T19:31:46;8.00;;;4.90;;
30249;SDS011;17064;47.974;13.826;2023-05-08T19:36:46;8.50;;;5.70;;
30249;SDS011;17064;47.974;13.826;2023-05-08T19:41:47;7.45;;;5.05;;
30249;SDS011;17064;47.974;13.826;2023-05-08T19:46:49;8.65;;;5.80;;
30249;SDS011;17064;47.974;13.826;2023-05-08T19:51:50;7.53;;;4.90;;
30249;SDS011;17064;47.974;13.826;2023-05-08T19:56:50;10.20;;;5.47;;
30249;SDS011;17064;47.974;13.826;2023-05-08T20:01:51;7.80;;;5.20;;
30249;SDS011;17064;47.974;13.826;2023-05-08T20:06:52;10.15;;;5.07;;
30249;SDS011;17064;47.974;13.826;2023-05-08T20:11:53;7.70;;;5.30;;
30249;SDS011;17064;47.974;13.826;2023-05-08T20:16:54;7.25;;;5.43;;
30249;SDS011;17064;47.974;13.826;2023-05-08T20:21:55;8.63;;;5.25;;
30249;SDS011;17064;47.974;13.826;2023-05-08T20:26:56;9.93;;;5.10;;
30249;SDS011;17064;47.974;13.826;2023-05-08T20:31:56;7.45;;;5.05;;
30249;SDS011;17064;47.974;13.826;2023-05-08T20:36:57;9.65;;;5.40;;
30249;SDS011;17064;47.974;13.826;2023-05-08T20:41:59;7.18;;;5.25;;
30249;SDS011;17064;47.974;13.826;2023-05-08T20:47:00;9.38;;;5.15;;
30249;SDS011;17064;47.974;13.826;2023-05-08T20:52:01;7.38;;;4.50;;
30249;SDS011;17064;47.974;13.826;2023-05-08T20:57:03;7.10;;;4.97;;
30249;SDS011;17064;47.974;13.826;2023-05-08T21:02:04;8.27;;;5.10;;
30249;SDS011;17064;47.974;13.826;2023-05-08T21:07:04;9.93;;;5.50;;
30249;SDS011;17064;47.974;13.826;2023-05-08T21:12:05;7.07;;;4.88;;
30249;SDS011;17064;47.974;13.826;2023-05-08T21:17:06;7.78;;;5.30;;
30249;SDS011;17064;47.974;13.826;2023-05-08T21:22:07;7.55;;;5.10;;
30249;SDS011;17064;47.974;13.826;2023-05-08T21:27:08;7.22;;;5.28;;
30249;SDS011;17064;47.974;13.826;2023-05-08T21:32:09;9.95;;;5.60;;
30249;SDS011;17064;47.974;13.826;2023-05-08T21:37:09;10.07;;;5.78;;
30249;SDS011;17064;47.974;13.826;2023-05-08T21:42:10;9.65;;;5.70;;
30249;SDS011;17064;47.974;13.826;2023-05-08T21:47:11;8.90;;;6.00;;
30249;SDS011;17064;47.974;13.826;2023-05-08T21:52:12;10.35;;;6.38;;
30249;SDS011;17064;47.974;13.826;2023-05-08T21:57:13;9.65;;;6.32;;
30249;SDS011;17064;47.974;13.826;2023-05-08T22:02:14;24.15;;;13.40;;
30249;SDS011;17064;47.974;13.826;2023-05-08T22:07:15;35.03;;;15.75;;
30249;SDS011;17064;47.974;13.826;2023-05-08T22:12:17;18.88;;;9.93;;
30249;SDS011;17064;47.974;13.826;2023-05-08T22:17:17;11.65;;;7.30;;
30249;SDS011;17064;47.974;13.826;2023-05-08T22:22:18;10.32;;;6.97;;
30249;SDS011;17064;47.974;13.826;2023-05-08T22:27:19;11.43;;;6.85;;
30249;SDS011;17064;47.974;13.826;2023-05-08T22:32:20;8.65;;;5.63;;
30249;SDS011;17064;47.974;13.826;2023-05-08T22:37:21;11.68;;;6.60;;
30249;SDS011;17064;47.974;13.826;2023-05-08T22:42:22;8.43;;;6.03;;
30249;SDS011;17064;47.974;13.826;2023-05-08T22:47:24;11.55;;;5.45;;
30249;SDS011;17064;47.974;13.826;2023-05-08T22:52:25;8.38;;;5.75;;
30249;SDS011;17064;47.974;13.826;2023-05-08T22:57:27;9.23;;;5.13;;
30249;SDS011;17064;47.974;13.826;2023-05-08T23:02:31;7.55;;;5.10;;
30249;SDS011;17064;47.974;13.826;2023-05-08T23:07:33;6.80;;;4.55;;
30249;SDS011;17064;47.974;13.826;2023-05-08T23:12:33;8.88;;;4.13;;
30249;SDS011;17064;47.974;13.826;2023-05-08T23:17:34;5.40;;;4.15;;
30249;SDS011;17064;47.974;13.826;2023-05-08T23:22:35;7.45;;;4.47;;
30249;SDS011;17064;47.974;13.826;2023-05-08T23:27:35;10.10;;;4.32;;
30249;SDS011;17064;47.974;13.826;2023-05-08T23:32:36;6.90;;;4.30;;
30249;SDS011;17064;47.974;13.826;2023-05-08T23:37:38;6.80;;;4.40;;
30249;SDS011;17064;47.974;13.826;2023-05-08T23:42:39;9.45;;;4.78;;
30249;SDS011;17064;47.974;13.826;2023-05-08T23:47:39;5.72;;;3.72;;
30249;SDS011;17064;47.974;13.826;2023-05-08T23:52:40;5.22;;;3.45;;
30249;SDS011;17064;47.974;13.826;2023-05-08T23:57:41;7.70;;;4.30;;
